sensor_id;sensor_type;location;lat;lon;timestamp;temperature;humidity
21559;DHT22;10940;48.890;8.240;2022-12-29T00:02:12;12.40;99.90
21559;DHT22;10940;48.890;8.240;2022-12-29T00:04:38;12.40;99.90
21559;DHT22;10940;48.890;8.240;2022-12-29T00:07:04;12.40;99.90
21559;DHT22;10940;48.890;8.240;2022-12-29T00:09:30;12.40;99.90
21559;DHT22;10940;48.890;8.240;2022-12-29T00:11:57;12.40;99.90
21559;DHT22;10940;48.890;8.240;2022-12-29T00:14:22;12.40;99.90
21559;DHT22;10940;48.890;8.240;2022-12-29T00:17:07;12.40;99.90
21559;DHT22;10940;48.890;8.240;2022-12-29T00:19:32;12.50;99.90
21559;DHT22;10940;48.890;8.240;2022-12-29T00:22:17;12.50;99.90
21559;DHT22;10940;48.890;8.240;2022-12-29T00:25:02;12.40;99.90
21559;DHT22;10940;48.890;8.240;2022-12-29T00:27:31;12.40;99.90
21559;DHT22;10940;48.890;8.240;2022-12-29T00:30:21;12.50;99.90
21559;DHT22;10940;48.890;8.240;2022-12-29T00:36:05;12.50;99.90
21559;DHT22;10940;48.890;8.240;2022-12-29T00:38:35;12.50;99.90
21559;DHT22;10940;48.890;8.240;2022-12-29T00:41:20;12.50;99.90
21559;DHT22;10940;48.890;8.240;2022-12-29T00:44:05;12.50;99.90
21559;DHT22;10940;48.890;8.240;2022-12-29T00:46:34;12.50;99.90
21559;DHT22;10940;48.890;8.240;2022-12-29T00:49:00;12.40;99.90
21559;DHT22;10940;48.890;8.240;2022-12-29T00:51:45;12.30;99.90
21559;DHT22;10940;48.890;8.240;2022-12-29T00:54:11;12.20;99.90
21559;DHT22;10940;48.890;8.240;2022-12-29T00:56:37;12.20;99.90
21559;DHT22;10940;48.890;8.240;2022-12-29T00:59:08;12.20;99.90
21559;DHT22;10940;48.890;8.240;2022-12-29T01:01:34;12.20;99.90
21559;DHT22;10940;48.890;8.240;2022-12-29T01:04:00;12.10;99.90
21559;DHT22;10940;48.890;8.240;2022-12-29T01:06:26;12.10;99.90
21559;DHT22;10940;48.890;8.240;2022-12-29T01:08:52;12.10;99.90
21559;DHT22;10940;48.890;8.240;2022-12-29T01:11:36;12.10;99.90
21559;DHT22;10940;48.890;8.240;2022-12-29T01:14:02;12.10;99.90
21559;DHT22;10940;48.890;8.240;2022-12-29T01:16:28;12.20;99.90
21559;DHT22;10940;48.890;8.240;2022-12-29T01:18:53;12.20;99.90
21559;DHT22;10940;48.890;8.240;2022-12-29T01:21:19;12.20;99.90
21559;DHT22;10940;48.890;8.240;2022-12-29T01:23:44;12.20;99.90
21559;DHT22;10940;48.890;8.240;2022-12-29T01:26:12;12.20;99.90
21559;DHT22;10940;48.890;8.240;2022-12-29T01:28:38;12.20;99.90
21559;DHT22;10940;48.890;8.240;2022-12-29T01:31:05;12.10;99.90
21559;DHT22;10940;48.890;8.240;2022-12-29T01:33:32;12.10;99.90
21559;DHT22;10940;48.890;8.240;2022-12-29T01:36:06;12.20;99.90
21559;DHT22;10940;48.890;8.240;2022-12-29T01:38:33;12.20;99.90
21559;DHT22;10940;48.890;8.240;2022-12-29T01:41:00;12.20;99.90
21559;DHT22;10940;48.890;8.240;2022-12-29T01:43:47;12.10;99.90
21559;DHT22;10940;48.890;8.240;2022-12-29T01:46:37;12.10;99.90
21559;DHT22;10940;48.890;8.240;2022-12-29T01:49:33;12.10;99.90
21559;DHT22;10940;48.890;8.240;2022-12-29T01:52:03;12.10;99.90
21559;DHT22;10940;48.890;8.240;2022-12-29T01:54:36;12.10;99.90
21559;DHT22;10940;48.890;8.240;2022-12-29T01:57:06;12.10;99.90
21559;DHT22;10940;48.890;8.240;2022-12-29T01:59:39;12.10;99.90
21559;DHT22;10940;48.890;8.240;2022-12-29T02:02:05;12.10;99.90
21559;DHT22;10940;48.890;8.240;2022-12-29T02:04:32;12.20;99.90
21559;DHT22;10940;48.890;8.240;2022-12-29T02:07:05;12.20;99.90
21559;DHT22;10940;48.890;8.240;2022-12-29T02:09:33;12.30;99.90
21559;DHT22;10940;48.890;8.240;2022-12-29T02:11:59;12.30;99.90
21559;DHT22;10940;48.890;8.240;2022-12-29T02:14:25;12.30;99.90
21559;DHT22;10940;48.890;8.240;2022-12-29T02:47:27;12.10;99.90
21559;DHT22;10940;48.890;8.240;2022-12-29T02:50:03;12.10;99.90
21559;DHT22;10940;48.890;8.240;2022-12-29T02:52:35;12.20;99.90
21559;DHT22;10940;48.890;8.240;2022-12-29T02:55:02;12.10;99.90
21559;DHT22;10940;48.890;8.240;2022-12-29T02:57:34;12.10;99.90
21559;DHT22;10940;48.890;8.240;2022-12-29T03:13:03;12.10;99.90
21559;DHT22;10940;48.890;8.240;2022-12-29T03:16:21;12.10;99.90
21559;DHT22;10940;48.890;8.240;2022-12-29T03:19:02;12.10;99.90
21559;DHT22;10940;48.890;8.240;2022-12-29T03:21:37;12.00;99.90
21559;DHT22;10940;48.890;8.240;2022-12-29T03:24:25;12.10;99.90
21559;DHT22;10940;48.890;8.240;2022-12-29T03:26:56;12.00;99.90
21559;DHT22;10940;48.890;8.240;2022-12-29T03:29:22;12.10;99.90
21559;DHT22;10940;48.890;8.240;2022-12-29T03:31:49;12.00;99.90
21559;DHT22;10940;48.890;8.240;2022-12-29T03:34:18;11.90;99.90
21559;DHT22;10940;48.890;8.240;2022-12-29T03:36:55;11.90;99.90
21559;DHT22;10940;48.890;8.240;2022-12-29T03:39:25;12.00;99.90
21559;DHT22;10940;48.890;8.240;2022-12-29T03:41:57;11.90;99.90
21559;DHT22;10940;48.890;8.240;2022-12-29T03:44:32;12.00;99.90
21559;DHT22;10940;48.890;8.240;2022-12-29T03:46:58;12.00;99.90
21559;DHT22;10940;48.890;8.240;2022-12-29T03:49:24;11.90;99.90
21559;DHT22;10940;48.890;8.240;2022-12-29T03:51:49;11.90;99.90
21559;DHT22;10940;48.890;8.240;2022-12-29T03:54:15;11.80;99.90
21559;DHT22;10940;48.890;8.240;2022-12-29T03:56:40;11.80;99.90
21559;DHT22;10940;48.890;8.240;2022-12-29T03:59:06;11.80;99.90
21559;DHT22;10940;48.890;8.240;2022-12-29T04:01:31;11.70;99.90
21559;DHT22;10940;48.890;8.240;2022-12-29T04:03:57;11.60;99.90
21559;DHT22;10940;48.890;8.240;2022-12-29T04:06:23;11.60;99.90
21559;DHT22;10940;48.890;8.240;2022-12-29T04:08:49;11.60;99.90
21559;DHT22;10940;48.890;8.240;2022-12-29T04:11:14;11.70;99.90
21559;DHT22;10940;48.890;8.240;2022-12-29T04:13:40;11.70;99.90
21559;DHT22;10940;48.890;8.240;2022-12-29T04:16:06;11.70;99.90
21559;DHT22;10940;48.890;8.240;2022-12-29T04:18:32;11.70;99.90
21559;DHT22;10940;48.890;8.240;2022-12-29T04:20:58;11.70;99.90
21559;DHT22;10940;48.890;8.240;2022-12-29T04:23:29;11.70;99.90
21559;DHT22;10940;48.890;8.240;2022-12-29T04:25:55;11.70;99.90
21559;DHT22;10940;48.890;8.240;2022-12-29T04:28:20;11.70;99.90
21559;DHT22;10940;48.890;8.240;2022-12-29T04:30:46;11.70;99.90
21559;DHT22;10940;48.890;8.240;2022-12-29T04:33:13;11.70;99.90
21559;DHT22;10940;48.890;8.240;2022-12-29T04:35:38;11.70;99.90
21559;DHT22;10940;48.890;8.240;2022-12-29T04:38:04;11.80;99.90
21559;DHT22;10940;48.890;8.240;2022-12-29T04:40:30;11.70;99.90
21559;DHT22;10940;48.890;8.240;2022-12-29T04:42:55;11.70;99.90
21559;DHT22;10940;48.890;8.240;2022-12-29T04:45:21;11.70;99.90
21559;DHT22;10940;48.890;8.240;2022-12-29T04:47:46;11.70;99.90
21559;DHT22;10940;48.890;8.240;2022-12-29T04:50:12;11.70;99.90
21559;DHT22;10940;48.890;8.240;2022-12-29T04:52:38;11.70;99.90
21559;DHT22;10940;48.890;8.240;2022-12-29T04:55:05;11.80;99.90
21559;DHT22;10940;48.890;8.240;2022-12-29T04:57:31;11.80;99.90
21559;DHT22;10940;48.890;8.240;2022-12-29T04:59:56;11.90;99.90
21559;DHT22;10940;48.890;8.240;2022-12-29T05:02:22;12.00;99.90
21559;DHT22;10940;48.890;8.240;2022-12-29T05:04:48;12.00;99.90
21559;DHT22;10940;48.890;8.240;2022-12-29T05:07:14;12.00;99.90
21559;DHT22;10940;48.890;8.240;2022-12-29T05:09:39;12.00;99.90
21559;DHT22;10940;48.890;8.240;2022-12-29T05:12:05;12.10;99.90
21559;DHT22;10940;48.890;8.240;2022-12-29T05:14:31;12.20;99.90
21559;DHT22;10940;48.890;8.240;2022-12-29T05:16:57;12.20;99.90
21559;DHT22;10940;48.890;8.240;2022-12-29T05:19:22;12.20;99.90
21559;DHT22;10940;48.890;8.240;2022-12-29T05:21:48;12.20;99.90
21559;DHT22;10940;48.890;8.240;2022-12-29T05:24:13;12.20;99.90
21559;DHT22;10940;48.890;8.240;2022-12-29T05:26:39;12.20;99.90
21559;DHT22;10940;48.890;8.240;2022-12-29T05:29:05;12.10;99.90
21559;DHT22;10940;48.890;8.240;2022-12-29T05:31:30;12.10;99.90
21559;DHT22;10940;48.890;8.240;2022-12-29T05:33:56;12.10;99.90
21559;DHT22;10940;48.890;8.240;2022-12-29T05:36:22;12.10;99.90
21559;DHT22;10940;48.890;8.240;2022-12-29T05:38:48;12.10;99.90
21559;DHT22;10940;48.890;8.240;2022-12-29T05:41:14;12.10;99.90
21559;DHT22;10940;48.890;8.240;2022-12-29T05:43:39;12.10;99.90
21559;DHT22;10940;48.890;8.240;2022-12-29T05:46:05;12.10;99.90
21559;DHT22;10940;48.890;8.240;2022-12-29T05:48:30;12.10;99.90
21559;DHT22;10940;48.890;8.240;2022-12-29T05:50:56;12.10;99.90
21559;DHT22;10940;48.890;8.240;2022-12-29T05:53:22;12.10;99.90
21559;DHT22;10940;48.890;8.240;2022-12-29T05:55:48;12.10;99.90
21559;DHT22;10940;48.890;8.240;2022-12-29T05:58:14;12.10;99.90
21559;DHT22;10940;48.890;8.240;2022-12-29T06:00:40;12.10;99.90
21559;DHT22;10940;48.890;8.240;2022-12-29T06:03:05;12.00;99.90
21559;DHT22;10940;48.890;8.240;2022-12-29T06:05:31;12.00;99.90
21559;DHT22;10940;48.890;8.240;2022-12-29T06:07:57;12.10;99.90
21559;DHT22;10940;48.890;8.240;2022-12-29T06:10:22;12.10;99.90
21559;DHT22;10940;48.890;8.240;2022-12-29T06:12:48;12.10;99.90
21559;DHT22;10940;48.890;8.240;2022-12-29T06:15:13;12.10;99.90
21559;DHT22;10940;48.890;8.240;2022-12-29T06:17:40;12.10;99.90
21559;DHT22;10940;48.890;8.240;2022-12-29T06:20:07;12.20;99.90
21559;DHT22;10940;48.890;8.240;2022-12-29T06:22:32;12.20;99.90
21559;DHT22;10940;48.890;8.240;2022-12-29T06:24:58;12.30;99.90
21559;DHT22;10940;48.890;8.240;2022-12-29T06:27:24;12.30;99.90
21559;DHT22;10940;48.890;8.240;2022-12-29T06:29:50;12.30;99.90
21559;DHT22;10940;48.890;8.240;2022-12-29T06:32:15;12.40;99.90
21559;DHT22;10940;48.890;8.240;2022-12-29T06:34:41;12.30;99.90
21559;DHT22;10940;48.890;8.240;2022-12-29T06:37:06;12.20;99.90
21559;DHT22;10940;48.890;8.240;2022-12-29T06:39:32;12.30;99.90
21559;DHT22;10940;48.890;8.240;2022-12-29T06:41:58;12.20;99.90
21559;DHT22;10940;48.890;8.240;2022-12-29T06:44:23;12.20;99.90
21559;DHT22;10940;48.890;8.240;2022-12-29T06:46:49;12.20;99.90
21559;DHT22;10940;48.890;8.240;2022-12-29T06:49:15;12.20;99.90
21559;DHT22;10940;48.890;8.240;2022-12-29T06:51:40;12.20;99.90
21559;DHT22;10940;48.890;8.240;2022-12-29T06:54:06;12.30;99.90
21559;DHT22;10940;48.890;8.240;2022-12-29T06:56:32;12.30;99.90
21559;DHT22;10940;48.890;8.240;2022-12-29T06:58:57;12.40;99.90
21559;DHT22;10940;48.890;8.240;2022-12-29T07:01:25;12.40;99.90
21559;DHT22;10940;48.890;8.240;2022-12-29T07:03:51;12.40;99.90
21559;DHT22;10940;48.890;8.240;2022-12-29T07:06:16;12.40;99.90
21559;DHT22;10940;48.890;8.240;2022-12-29T07:08:42;12.50;99.90
21559;DHT22;10940;48.890;8.240;2022-12-29T07:11:07;12.50;99.90
21559;DHT22;10940;48.890;8.240;2022-12-29T07:13:34;12.60;99.90
21559;DHT22;10940;48.890;8.240;2022-12-29T07:16:04;12.50;99.90
21559;DHT22;10940;48.890;8.240;2022-12-29T07:18:29;12.50;99.90
21559;DHT22;10940;48.890;8.240;2022-12-29T07:20:55;12.50;99.90
21559;DHT22;10940;48.890;8.240;2022-12-29T07:23:20;12.50;99.90
21559;DHT22;10940;48.890;8.240;2022-12-29T07:25:46;12.50;99.90
21559;DHT22;10940;48.890;8.240;2022-12-29T07:28:12;12.50;99.90
21559;DHT22;10940;48.890;8.240;2022-12-29T07:30:38;12.60;99.90
21559;DHT22;10940;48.890;8.240;2022-12-29T07:33:04;12.50;99.90
21559;DHT22;10940;48.890;8.240;2022-12-29T07:35:29;12.50;99.90
21559;DHT22;10940;48.890;8.240;2022-12-29T07:37:55;12.60;99.90
21559;DHT22;10940;48.890;8.240;2022-12-29T07:40:20;12.60;99.90
21559;DHT22;10940;48.890;8.240;2022-12-29T07:42:46;12.60;99.90
21559;DHT22;10940;48.890;8.240;2022-12-29T07:45:11;12.60;99.90
21559;DHT22;10940;48.890;8.240;2022-12-29T07:47:37;12.60;99.90
21559;DHT22;10940;48.890;8.240;2022-12-29T07:50:04;12.50;99.90
21559;DHT22;10940;48.890;8.240;2022-12-29T07:52:29;12.60;99.90
21559;DHT22;10940;48.890;8.240;2022-12-29T07:54:55;12.50;99.90
21559;DHT22;10940;48.890;8.240;2022-12-29T07:57:21;12.50;99.90
21559;DHT22;10940;48.890;8.240;2022-12-29T07:59:46;12.60;99.90
21559;DHT22;10940;48.890;8.240;2022-12-29T08:02:12;12.60;99.90
21559;DHT22;10940;48.890;8.240;2022-12-29T08:04:38;12.60;99.90
21559;DHT22;10940;48.890;8.240;2022-12-29T08:07:04;12.60;99.90
21559;DHT22;10940;48.890;8.240;2022-12-29T08:09:29;12.60;99.90
21559;DHT22;10940;48.890;8.240;2022-12-29T08:11:55;12.60;99.90
21559;DHT22;10940;48.890;8.240;2022-12-29T08:14:21;12.70;99.90
21559;DHT22;10940;48.890;8.240;2022-12-29T08:16:46;12.70;99.90
21559;DHT22;10940;48.890;8.240;2022-12-29T08:19:13;12.70;99.90
21559;DHT22;10940;48.890;8.240;2022-12-29T08:21:39;12.80;99.90
21559;DHT22;10940;48.890;8.240;2022-12-29T08:24:05;12.80;99.90
21559;DHT22;10940;48.890;8.240;2022-12-29T08:26:31;12.80;99.90
21559;DHT22;10940;48.890;8.240;2022-12-29T08:28:56;12.80;99.90
21559;DHT22;10940;48.890;8.240;2022-12-29T08:31:22;12.80;99.90
21559;DHT22;10940;48.890;8.240;2022-12-29T08:33:49;12.90;99.90
21559;DHT22;10940;48.890;8.240;2022-12-29T08:36:15;12.80;99.90
21559;DHT22;10940;48.890;8.240;2022-12-29T08:38:41;12.90;99.90
21559;DHT22;10940;48.890;8.240;2022-12-29T08:41:06;12.90;99.90
21559;DHT22;10940;48.890;8.240;2022-12-29T08:43:32;12.90;99.90
21559;DHT22;10940;48.890;8.240;2022-12-29T08:45:58;12.90;99.90
21559;DHT22;10940;48.890;8.240;2022-12-29T08:48:25;13.00;99.90
21559;DHT22;10940;48.890;8.240;2022-12-29T08:50:50;13.00;99.90
21559;DHT22;10940;48.890;8.240;2022-12-29T08:53:17;13.00;99.90
21559;DHT22;10940;48.890;8.240;2022-12-29T08:55:45;12.90;99.90
21559;DHT22;10940;48.890;8.240;2022-12-29T08:58:11;13.00;99.90
21559;DHT22;10940;48.890;8.240;2022-12-29T09:00:40;13.00;99.90
21559;DHT22;10940;48.890;8.240;2022-12-29T09:03:06;13.00;99.90
21559;DHT22;10940;48.890;8.240;2022-12-29T09:05:32;13.00;99.90
21559;DHT22;10940;48.890;8.240;2022-12-29T09:07:57;13.00;99.90
21559;DHT22;10940;48.890;8.240;2022-12-29T09:10:23;13.00;99.90
21559;DHT22;10940;48.890;8.240;2022-12-29T09:12:48;13.00;99.90
21559;DHT22;10940;48.890;8.240;2022-12-29T09:15:14;13.00;99.90
21559;DHT22;10940;48.890;8.240;2022-12-29T09:17:41;13.00;99.90
21559;DHT22;10940;48.890;8.240;2022-12-29T09:20:17;13.10;99.90
21559;DHT22;10940;48.890;8.240;2022-12-29T09:22:43;13.10;99.90
21559;DHT22;10940;48.890;8.240;2022-12-29T09:25:10;13.10;99.90
21559;DHT22;10940;48.890;8.240;2022-12-29T09:27:36;13.10;99.90
21559;DHT22;10940;48.890;8.240;2022-12-29T09:30:07;13.20;99.90
21559;DHT22;10940;48.890;8.240;2022-12-29T09:32:33;13.30;99.90
21559;DHT22;10940;48.890;8.240;2022-12-29T09:34:59;13.40;99.90
21559;DHT22;10940;48.890;8.240;2022-12-29T09:37:25;13.40;99.90
21559;DHT22;10940;48.890;8.240;2022-12-29T09:39:50;13.60;99.90
21559;DHT22;10940;48.890;8.240;2022-12-29T09:47:22;13.80;99.90
21559;DHT22;10940;48.890;8.240;2022-12-29T09:50:00;13.90;99.90
21559;DHT22;10940;48.890;8.240;2022-12-29T09:52:32;13.90;99.90
21559;DHT22;10940;48.890;8.240;2022-12-29T09:55:42;14.00;99.90
21559;DHT22;10940;48.890;8.240;2022-12-29T09:58:37;14.10;99.90
21559;DHT22;10940;48.890;8.240;2022-12-29T10:01:07;14.20;99.90
21559;DHT22;10940;48.890;8.240;2022-12-29T10:03:50;14.20;99.90
21559;DHT22;10940;48.890;8.240;2022-12-29T10:12:12;14.60;99.90
21559;DHT22;10940;48.890;8.240;2022-12-29T10:15:02;14.60;99.90
21559;DHT22;10940;48.890;8.240;2022-12-29T10:23:51;14.50;99.90
21559;DHT22;10940;48.890;8.240;2022-12-29T10:26:20;14.40;99.90
21559;DHT22;10940;48.890;8.240;2022-12-29T10:28:48;14.40;99.90
21559;DHT22;10940;48.890;8.240;2022-12-29T10:31:36;14.40;99.90
21559;DHT22;10940;48.890;8.240;2022-12-29T10:34:14;14.30;99.90
21559;DHT22;10940;48.890;8.240;2022-12-29T10:36:44;14.30;99.90
21559;DHT22;10940;48.890;8.240;2022-12-29T10:44:31;14.20;99.90
21559;DHT22;10940;48.890;8.240;2022-12-29T10:47:04;14.20;99.90
21559;DHT22;10940;48.890;8.240;2022-12-29T10:49:32;14.20;99.90
21559;DHT22;10940;48.890;8.240;2022-12-29T10:52:02;14.20;99.90
21559;DHT22;10940;48.890;8.240;2022-12-29T10:54:42;14.10;99.90
21559;DHT22;10940;48.890;8.240;2022-12-29T10:59:56;14.10;99.90
21559;DHT22;10940;48.890;8.240;2022-12-29T11:03:02;14.00;99.90
21559;DHT22;10940;48.890;8.240;2022-12-29T11:05:50;13.90;99.90
21559;DHT22;10940;48.890;8.240;2022-12-29T11:08:21;13.90;99.90
21559;DHT22;10940;48.890;8.240;2022-12-29T11:11:00;13.80;99.90
21559;DHT22;10940;48.890;8.240;2022-12-29T11:13:29;13.80;99.90
21559;DHT22;10940;48.890;8.240;2022-12-29T11:15:55;13.80;99.90
21559;DHT22;10940;48.890;8.240;2022-12-29T11:18:32;13.80;99.90
21559;DHT22;10940;48.890;8.240;2022-12-29T11:21:00;13.80;99.90
21559;DHT22;10940;48.890;8.240;2022-12-29T11:23:36;13.70;99.90
21559;DHT22;10940;48.890;8.240;2022-12-29T11:28:41;13.80;99.90
21559;DHT22;10940;48.890;8.240;2022-12-29T11:31:08;13.90;99.90
21559;DHT22;10940;48.890;8.240;2022-12-29T11:33:35;13.90;99.90
21559;DHT22;10940;48.890;8.240;2022-12-29T11:36:11;14.00;99.90
21559;DHT22;10940;48.890;8.240;2022-12-29T11:38:54;14.10;99.90
21559;DHT22;10940;48.890;8.240;2022-12-29T11:41:26;14.10;99.90
21559;DHT22;10940;48.890;8.240;2022-12-29T11:44:00;14.20;99.90
21559;DHT22;10940;48.890;8.240;2022-12-29T11:46:35;14.20;99.90
21559;DHT22;10940;48.890;8.240;2022-12-29T11:49:03;14.30;99.90
21559;DHT22;10940;48.890;8.240;2022-12-29T11:51:37;14.30;99.90
21559;DHT22;10940;48.890;8.240;2022-12-29T11:54:05;14.20;99.90
21559;DHT22;10940;48.890;8.240;2022-12-29T11:56:39;14.20;99.90
21559;DHT22;10940;48.890;8.240;2022-12-29T12:01:58;14.20;99.90
21559;DHT22;10940;48.890;8.240;2022-12-29T12:04:27;14.10;99.90
21559;DHT22;10940;48.890;8.240;2022-12-29T12:07:02;14.10;99.90
21559;DHT22;10940;48.890;8.240;2022-12-29T12:09:42;14.10;99.90
21559;DHT22;10940;48.890;8.240;2022-12-29T12:12:21;14.00;99.90
21559;DHT22;10940;48.890;8.240;2022-12-29T12:14:55;14.00;99.90
21559;DHT22;10940;48.890;8.240;2022-12-29T12:17:29;14.00;99.90
21559;DHT22;10940;48.890;8.240;2022-12-29T12:20:21;14.00;99.90
21559;DHT22;10940;48.890;8.240;2022-12-29T12:22:58;14.00;99.90
21559;DHT22;10940;48.890;8.240;2022-12-29T12:25:35;13.90;99.90
21559;DHT22;10940;48.890;8.240;2022-12-29T12:28:13;13.80;99.90
21559;DHT22;10940;48.890;8.240;2022-12-29T12:30:47;13.80;99.90
21559;DHT22;10940;48.890;8.240;2022-12-29T12:33:38;13.90;99.90
21559;DHT22;10940;48.890;8.240;2022-12-29T12:38:55;13.90;99.90
21559;DHT22;10940;48.890;8.240;2022-12-29T12:45:30;13.90;99.90
21559;DHT22;10940;48.890;8.240;2022-12-29T12:50:06;13.90;99.90
21559;DHT22;10940;48.890;8.240;2022-12-29T12:52:48;14.00;99.90
21559;DHT22;10940;48.890;8.240;2022-12-29T13:06:57;13.80;99.90
21559;DHT22;10940;48.890;8.240;2022-12-29T13:09:48;13.80;99.90
21559;DHT22;10940;48.890;8.240;2022-12-29T13:12:44;13.70;99.90
21559;DHT22;10940;48.890;8.240;2022-12-29T13:23:47;13.10;99.90
21559;DHT22;10940;48.890;8.240;2022-12-29T13:31:47;12.10;99.90
21559;DHT22;10940;48.890;8.240;2022-12-29T13:34:43;11.90;99.90
21559;DHT22;10940;48.890;8.240;2022-12-29T13:37:17;11.70;99.90
21559;DHT22;10940;48.890;8.240;2022-12-29T13:39:59;11.70;99.90
21559;DHT22;10940;48.890;8.240;2022-12-29T13:42:27;11.60;99.90
21559;DHT22;10940;48.890;8.240;2022-12-29T13:44:54;11.70;99.90
21559;DHT22;10940;48.890;8.240;2022-12-29T13:47:31;11.70;99.90
21559;DHT22;10940;48.890;8.240;2022-12-29T13:50:00;11.60;99.90
21559;DHT22;10940;48.890;8.240;2022-12-29T13:52:54;11.60;99.90
21559;DHT22;10940;48.890;8.240;2022-12-29T13:58:09;11.60;99.90
21559;DHT22;10940;48.890;8.240;2022-12-29T14:06:20;11.30;99.90
21559;DHT22;10940;48.890;8.240;2022-12-29T14:08:47;11.30;99.90
21559;DHT22;10940;48.890;8.240;2022-12-29T14:11:18;11.20;99.90
21559;DHT22;10940;48.890;8.240;2022-12-29T14:13:47;11.20;99.90
21559;DHT22;10940;48.890;8.240;2022-12-29T14:16:33;11.10;99.90
21559;DHT22;10940;48.890;8.240;2022-12-29T14:19:13;11.00;99.90
21559;DHT22;10940;48.890;8.240;2022-12-29T14:21:40;10.90;99.90
21559;DHT22;10940;48.890;8.240;2022-12-29T14:26:56;10.80;99.90
21559;DHT22;10940;48.890;8.240;2022-12-29T14:31:51;10.60;99.90
21559;DHT22;10940;48.890;8.240;2022-12-29T14:44:52;10.20;99.90
21559;DHT22;10940;48.890;8.240;2022-12-29T14:47:31;10.10;99.90
21559;DHT22;10940;48.890;8.240;2022-12-29T14:50:22;10.10;99.90
21559;DHT22;10940;48.890;8.240;2022-12-29T14:55:41;10.20;99.90
21559;DHT22;10940;48.890;8.240;2022-12-29T14:58:32;10.20;99.90
21559;DHT22;10940;48.890;8.240;2022-12-29T15:01:03;10.20;99.90
21559;DHT22;10940;48.890;8.240;2022-12-29T15:03:48;10.20;99.90
21559;DHT22;10940;48.890;8.240;2022-12-29T15:06:18;10.20;99.90
21559;DHT22;10940;48.890;8.240;2022-12-29T15:09:22;10.20;99.90
21559;DHT22;10940;48.890;8.240;2022-12-29T15:11:52;10.30;99.90
21559;DHT22;10940;48.890;8.240;2022-12-29T15:14:39;10.30;99.90
21559;DHT22;10940;48.890;8.240;2022-12-29T15:17:25;10.30;99.90
21559;DHT22;10940;48.890;8.240;2022-12-29T15:19:52;10.30;99.90
21559;DHT22;10940;48.890;8.240;2022-12-29T15:22:18;10.30;99.90
21559;DHT22;10940;48.890;8.240;2022-12-29T15:24:45;10.30;99.90
21559;DHT22;10940;48.890;8.240;2022-12-29T15:27:14;10.30;99.90
21559;DHT22;10940;48.890;8.240;2022-12-29T15:29:43;10.30;99.90
21559;DHT22;10940;48.890;8.240;2022-12-29T15:34:41;10.30;99.90
21559;DHT22;10940;48.890;8.240;2022-12-29T15:37:08;10.30;99.90
21559;DHT22;10940;48.890;8.240;2022-12-29T15:39:34;10.30;99.90
21559;DHT22;10940;48.890;8.240;2022-12-29T15:42:20;10.20;99.90
21559;DHT22;10940;48.890;8.240;2022-12-29T15:44:48;10.30;99.90
21559;DHT22;10940;48.890;8.240;2022-12-29T15:47:16;10.30;99.90
21559;DHT22;10940;48.890;8.240;2022-12-29T15:49:43;10.30;99.90
21559;DHT22;10940;48.890;8.240;2022-12-29T15:52:10;10.30;99.90
21559;DHT22;10940;48.890;8.240;2022-12-29T15:54:37;10.20;99.90
21559;DHT22;10940;48.890;8.240;2022-12-29T15:57:04;10.30;99.90
21559;DHT22;10940;48.890;8.240;2022-12-29T15:59:46;10.30;99.90
21559;DHT22;10940;48.890;8.240;2022-12-29T16:02:12;10.30;99.90
21559;DHT22;10940;48.890;8.240;2022-12-29T16:04:39;10.30;99.90
21559;DHT22;10940;48.890;8.240;2022-12-29T16:07:19;10.30;99.90
21559;DHT22;10940;48.890;8.240;2022-12-29T16:09:47;10.20;99.90
21559;DHT22;10940;48.890;8.240;2022-12-29T16:12:26;10.20;99.90
21559;DHT22;10940;48.890;8.240;2022-12-29T16:15:00;10.20;99.90
21559;DHT22;10940;48.890;8.240;2022-12-29T16:17:29;10.20;99.90
21559;DHT22;10940;48.890;8.240;2022-12-29T16:20:01;10.20;99.90
21559;DHT22;10940;48.890;8.240;2022-12-29T16:22:33;10.20;99.90
21559;DHT22;10940;48.890;8.240;2022-12-29T16:25:25;10.30;99.90
21559;DHT22;10940;48.890;8.240;2022-12-29T16:27:53;10.30;99.90
21559;DHT22;10940;48.890;8.240;2022-12-29T16:30:30;10.20;99.90
21559;DHT22;10940;48.890;8.240;2022-12-29T16:32:58;10.20;99.90
21559;DHT22;10940;48.890;8.240;2022-12-29T16:35:26;10.20;99.90
21559;DHT22;10940;48.890;8.240;2022-12-29T16:38:19;10.20;99.90
21559;DHT22;10940;48.890;8.240;2022-12-29T16:40:57;10.30;99.90
21559;DHT22;10940;48.890;8.240;2022-12-29T16:43:28;10.30;99.90
21559;DHT22;10940;48.890;8.240;2022-12-29T16:48:34;10.20;99.90
21559;DHT22;10940;48.890;8.240;2022-12-29T16:51:14;10.20;99.90
21559;DHT22;10940;48.890;8.240;2022-12-29T16:53:47;10.20;99.90
21559;DHT22;10940;48.890;8.240;2022-12-29T16:56:20;10.20;99.90
21559;DHT22;10940;48.890;8.240;2022-12-29T16:58:50;10.20;99.90
21559;DHT22;10940;48.890;8.240;2022-12-29T17:01:17;10.20;99.90
21559;DHT22;10940;48.890;8.240;2022-12-29T17:03:53;10.20;99.90
21559;DHT22;10940;48.890;8.240;2022-12-29T17:06:21;10.20;99.90
21559;DHT22;10940;48.890;8.240;2022-12-29T17:08:48;10.20;99.90
21559;DHT22;10940;48.890;8.240;2022-12-29T17:11:30;10.20;99.90
21559;DHT22;10940;48.890;8.240;2022-12-29T17:16:47;10.10;99.90
21559;DHT22;10940;48.890;8.240;2022-12-29T17:19:20;10.20;99.90
21559;DHT22;10940;48.890;8.240;2022-12-29T17:21:48;10.10;99.90
21559;DHT22;10940;48.890;8.240;2022-12-29T17:24:19;10.10;99.90
21559;DHT22;10940;48.890;8.240;2022-12-29T17:26:52;10.00;99.90
21559;DHT22;10940;48.890;8.240;2022-12-29T17:29:32;10.00;99.90
21559;DHT22;10940;48.890;8.240;2022-12-29T17:32:00;9.90;99.90
21559;DHT22;10940;48.890;8.240;2022-12-29T17:34:27;9.90;99.90
21559;DHT22;10940;48.890;8.240;2022-12-29T17:36:52;9.80;99.90
21559;DHT22;10940;48.890;8.240;2022-12-29T17:39:18;9.70;99.90
21559;DHT22;10940;48.890;8.240;2022-12-29T17:41:44;9.70;99.90
21559;DHT22;10940;48.890;8.240;2022-12-29T17:44:15;9.70;99.90
21559;DHT22;10940;48.890;8.240;2022-12-29T17:46:42;9.60;99.90
21559;DHT22;10940;48.890;8.240;2022-12-29T17:49:17;9.60;99.90
21559;DHT22;10940;48.890;8.240;2022-12-29T17:51:44;9.60;99.90
21559;DHT22;10940;48.890;8.240;2022-12-29T17:54:22;9.60;99.90
21559;DHT22;10940;48.890;8.240;2022-12-29T17:56:49;9.60;99.90
21559;DHT22;10940;48.890;8.240;2022-12-29T17:59:15;9.70;99.90
21559;DHT22;10940;48.890;8.240;2022-12-29T18:01:45;9.60;99.90
21559;DHT22;10940;48.890;8.240;2022-12-29T18:04:17;9.60;99.90
21559;DHT22;10940;48.890;8.240;2022-12-29T18:06:44;9.60;99.90
21559;DHT22;10940;48.890;8.240;2022-12-29T18:09:12;9.60;99.90
21559;DHT22;10940;48.890;8.240;2022-12-29T18:11:40;9.50;99.90
21559;DHT22;10940;48.890;8.240;2022-12-29T18:14:24;9.60;99.90
21559;DHT22;10940;48.890;8.240;2022-12-29T18:16:50;9.50;99.90
21559;DHT22;10940;48.890;8.240;2022-12-29T18:19:15;9.50;99.90
21559;DHT22;10940;48.890;8.240;2022-12-29T18:21:42;9.50;99.90